Time;durP1;ratioP1;P1;durP2;ratioP2;P2;SDS_P1;SDS_P2;PMS_P1;PMS_P2;Temp;Humidity;BMP_temperature;BMP_pressure;BME280_temperature;BME280_humidity;BME280_pressure;Samples;Min_cycle;Max_cycle;Signal;HPM_P1;HPM_P2
2023/07/28 04:49:29;;;;;;;3.20;2.00;;;;;;;16.63;100.00;99353.34;85230;1307;544851;-63
2023/07/28 04:51:43;;;;;;;1.50;0.90;;;;;;;16.64;100.00;99352.98;87060;1289;22964;-65
2023/07/28 04:54:09;;;;;;;0.50;0.40;;;;;;;16.72;100.00;99354.36;87176;1289;25507;-64
2023/07/28 04:56:11;;;;;;;1.30;0.80;;;;;;;16.82;100.00;99353.78;86578;1287;318402;-62
2023/07/28 04:58:13;;;;;;;0.60;0.20;;;;;;;16.94;100.00;99351.00;90677;1270;22303;-64
2023/07/28 05:00:55;;;;;;;1.40;0.80;;;;;;;17.09;100.00;99354.21;42110;302;546423;-65
2023/07/28 05:03:28;;;;;;;1.40;0.40;;;;;;;17.07;100.00;99355.07;39080;314;4581195;-64
2023/07/28 05:04:32;;;;;;;0.70;0.30;;;;;;;17.07;100.00;99356.56;42819;301;137378;-63
2023/07/28 05:05:34;;;;;;;;;;;;;;;17.06;100.00;99358.87;43074;292;23054;-63
2023/07/28 05:08:44;;;;;;;2.20;0.40;;;;;;;17.00;100.00;99360.86;85335;302;547082;-63
2023/07/28 05:10:46;;;;;;;1.80;1.70;;;;;;;16.94;100.00;99362.91;86033;297;22469;-63
2023/07/28 05:12:48;;;;;;;3.10;1.40;;;;;;;16.94;100.00;99357.14;85913;298;137093;-64
2023/07/28 05:14:50;;;;;;;1.50;0.60;;;;;;;16.98;100.00;99362.51;86061;297;22468;-64
2023/07/28 05:16:53;;;;;;;8.40;3.40;;;;;;;16.94;100.00;99362.75;86014;297;136164;-68
2023/07/28 05:19:07;;;;;;;1.20;0.40;;;;;;;16.89;100.00;99362.59;86025;297;23046;-63
2023/07/28 05:21:28;;;;;;;2.20;0.60;;;;;;;16.89;100.00;99363.42;86008;295;135991;-62
2023/07/28 05:23:30;;;;;;;0.30;0.20;;;;;;;16.89;100.00;99365.55;85879;295;329798;-64
2023/07/28 05:25:32;;;;;;;2.50;1.80;;;;;;;16.87;100.00;99360.09;86238;291;136914;-65
2023/07/28 05:27:34;;;;;;;1.60;0.50;;;;;;;16.86;100.00;99360.17;86608;287;22511;-63
2023/07/28 05:29:35;;;;;;;7.70;0.90;;;;;;;16.89;100.00;99357.21;86480;286;137955;-62
2023/07/28 05:31:39;;;;;;;3.30;0.20;;;;;;;16.92;100.00;99356.96;86588;288;22396;-62
2023/07/28 05:33:49;;;;;;;0.90;0.20;;;;;;;16.89;100.00;99360.48;86460;288;136793;-62
2023/07/28 05:35:59;;;;;;;3.00;0.70;;;;;;;16.90;100.00;99360.13;86533;287;23252;-65
2023/07/28 05:38:06;;;;;;;1.20;0.90;;;;;;;17.00;100.00;99367.59;86524;288;22445;-63
2023/07/28 05:40:08;;;;;;;1.00;0.60;;;;;;;17.03;100.00;99374.73;86244;288;138018;-62
2023/07/28 05:42:10;;;;;;;4.90;0.60;;;;;;;17.08;100.00;99379.73;86160;287;22557;-63
2023/07/28 05:44:12;;;;;;;4.10;0.70;;;;;;;17.13;100.00;99383.54;85889;287;136728;-62
2023/07/28 05:46:13;;;;;;;0.80;0.30;;;;;;;17.12;100.00;99383.42;86144;289;22407;-62
2023/07/28 05:48:16;;;;;;;0.40;0.20;;;;;;;17.15;100.00;99383.94;85928;289;137457;-62
2023/07/28 05:50:17;;;;;;;0.90;0.20;;;;;;;17.18;100.00;99384.77;86379;289;22578;-60
2023/07/28 05:52:20;;;;;;;0.50;0.30;;;;;;;17.20;100.00;99389.27;86250;286;136663;-66
2023/07/28 05:54:21;;;;;;;1.70;0.50;;;;;;;17.27;100.00;99393.05;86263;286;25607;-62
2023/07/28 05:56:23;;;;;;;1.70;1.30;;;;;;;17.30;100.00;99390.92;86051;288;137715;-62
2023/07/28 05:58:25;;;;;;;2.00;0.50;;;;;;;17.30;100.00;99392.59;84078;287;22753;-63
2023/07/28 06:00:28;;;;;;;1.90;0.40;;;;;;;17.31;100.00;99391.96;83724;288;136732;-60
2023/07/28 06:02:30;;;;;;;1.90;0.70;;;;;;;17.28;100.00;99394.67;83931;284;22661;-68
2023/07/28 06:04:33;;;;;;;1.40;0.20;;;;;;;17.25;100.00;99400.80;83980;287;137230;-61
2023/07/28 06:06:36;;;;;;;1.70;0.40;;;;;;;17.24;100.00;99397.77;83939;287;22722;-61
2023/07/28 06:08:38;;;;;;;1.70;0.40;;;;;;;17.28;100.00;99401.84;83857;288;136964;-66
2023/07/28 06:10:40;;;;;;;1.80;0.70;;;;;;;17.33;100.00;99399.89;83894;288;25223;-60
2023/07/28 06:12:42;;;;;;;1.40;0.30;;;;;;;17.34;100.00;99405.92;83844;287;136745;-59
2023/07/28 06:14:43;;;;;;;1.60;0.30;;;;;;;17.34;100.00;99404.91;83855;289;24219;-62
2023/07/28 06:16:48;;;;;;;1.70;0.30;;;;;;;17.44;100.00;99405.38;83932;287;136627;-58
2023/07/28 06:18:50;;;;;;;3.20;0.40;;;;;;;17.56;100.00;99406.91;83925;289;24108;-63
2023/07/28 06:20:55;;;;;;;2.40;0.70;;;;;;;17.68;100.00;99409.92;83829;289;136450;-62
2023/07/28 06:22:57;;;;;;;0.90;0.40;;;;;;;17.82;100.00;99408.42;83878;289;22716;-62
2023/07/28 06:24:58;;;;;;;4.50;0.40;;;;;;;17.93;100.00;99409.23;83739;289;136795;-64
2023/07/28 06:27:03;;;;;;;1.20;0.20;;;;;;;18.01;100.00;99412.19;83964;288;22560;-63
2023/07/28 06:29:05;;;;;;;1.70;0.40;;;;;;;18.06;100.00;99412.17;83846;288;136360;-66
2023/07/28 06:31:09;;;;;;;2.20;0.70;;;;;;;18.18;100.00;99417.02;84044;286;22558;-64
2023/07/28 06:33:12;;;;;;;2.40;0.40;;;;;;;18.30;100.00;99415.33;83826;287;136610;-63
2023/07/28 06:35:14;;;;;;;1.30;0.40;;;;;;;18.45;100.00;99416.31;84014;288;25159;-62
2023/07/28 06:37:16;;;;;;;1.00;0.30;;;;;;;18.67;100.00;99414.63;83744;285;136842;-61
2023/07/28 06:39:18;;;;;;;4.10;0.70;;;;;;;18.86;100.00;99417.05;84043;289;23753;-62
2023/07/28 06:41:21;;;;;;;2.80;1.10;;;;;;;18.99;100.00;99416.44;83803;288;136698;-61
2023/07/28 06:43:28;;;;;;;1.80;0.30;;;;;;;19.11;100.00;99417.27;83787;289;22705;-63
2023/07/28 06:45:30;;;;;;;3.30;1.00;;;;;;;19.23;100.00;99418.42;83787;288;136610;-65
2023/07/28 06:47:32;;;;;;;2.30;0.40;;;;;;;19.42;100.00;99418.06;83985;287;25281;-62
2023/07/28 06:49:34;;;;;;;1.00;0.50;;;;;;;19.66;100.00;99420.23;83875;287;136525;-64
2023/07/28 06:51:36;;;;;;;2.30;0.40;;;;;;;19.89;99.57;99415.82;83785;288;25219;-63
2023/07/28 06:53:45;;;;;;;0.70;0.30;;;;;;;20.09;98.30;99418.77;83944;286;135791;-62
2023/07/28 06:55:47;;;;;;;5.00;0.80;;;;;;;20.29;98.48;99418.06;84237;286;22614;-64
2023/07/28 06:57:49;;;;;;;1.70;0.30;;;;;;;20.54;96.35;99421.98;83914;287;136281;-67
2023/07/28 06:59:51;;;;;;;1.30;0.60;;;;;;;20.78;95.20;99421.96;84187;288;22664;-66
2023/07/28 07:01:53;;;;;;;1.20;0.20;;;;;;;21.00;93.69;99422.67;83828;286;135735;-64
2023/07/28 07:03:55;;;;;;;0.50;0.20;;;;;;;21.22;92.97;99416.69;83966;287;26358;-66
2023/07/28 07:05:58;;;;;;;2.10;0.20;;;;;;;21.41;90.41;99420.89;83896;287;135515;-62
2023/07/28 07:08:01;;;;;;;2.40;0.30;;;;;;;21.52;89.38;99415.73;83848;287;24138;-62
2023/07/28 07:10:04;;;;;;;2.60;0.20;;;;;;;21.59;88.01;99419.98;83973;288;25138;-63
2023/07/28 07:12:08;;;;;;;1.90;0.50;;;;;;;21.57;86.52;99418.14;84054;289;135964;-65
2023/07/28 07:14:10;;;;;;;1.80;0.20;;;;;;;21.56;87.59;99410.87;84058;285;22577;-65
2023/07/28 07:16:18;;;;;;;0.70;0.40;;;;;;;21.61;87.73;99416.15;83873;288;135959;-63
2023/07/28 07:18:25;;;;;;;2.70;0.20;;;;;;;21.74;87.52;99406.00;83959;288;26245;-64
2023/07/28 07:20:26;;;;;;;1.70;0.20;;;;;;;21.86;86.34;99408.45;83700;288;135414;-63
2023/07/28 07:22:28;;;;;;;0.60;0.40;;;;;;;21.92;85.89;99404.48;83802;288;22557;-63
2023/07/28 07:24:32;;;;;;;1.40;0.30;;;;;;;21.93;84.38;99409.02;83832;286;137330;-65
2023/07/28 07:26:34;;;;;;;0.60;0.10;;;;;;;21.90;85.02;99412.68;83965;286;25297;-61
2023/07/28 07:28:37;;;;;;;0.70;0.20;;;;;;;21.89;84.76;99408.69;83879;287;135898;-67
2023/07/28 07:30:39;;;;;;;0.60;0.10;;;;;;;21.94;84.68;99406.14;83949;287;23283;-66
2023/07/28 07:32:41;;;;;;;0.40;0.20;;;;;;;21.90;83.75;99402.87;83728;289;135657;-63
2023/07/28 07:34:43;;;;;;;1.20;0.20;;;;;;;21.88;83.37;99414.71;83968;288;24236;-62
2023/07/28 07:36:45;;;;;;;1.30;0.20;;;;;;;21.73;83.43;99415.83;83773;288;135970;-63
2023/07/28 07:38:48;;;;;;;0.70;0.20;;;;;;;21.67;83.90;99414.80;84051;287;25206;-64
2023/07/28 07:40:50;;;;;;;0.70;0.20;;;;;;;21.62;83.45;99416.02;83936;257;135765;-65
2023/07/28 07:42:52;;;;;;;2.60;0.30;;;;;;;21.56;84.12;99420.13;83851;288;25164;-66
2023/07/28 07:44:54;;;;;;;1.10;0.40;;;;;;;21.50;83.51;99426.98;83932;286;135891;-68
2023/07/28 07:46:56;;;;;;;0.70;0.20;;;;;;;21.40;85.25;99426.16;84120;275;22569;-62
2023/07/28 07:48:58;;;;;;;2.90;0.50;;;;;;;21.33;85.93;99424.52;83841;286;136017;-66
2023/07/28 07:51:00;;;;;;;1.40;0.20;;;;;;;21.35;85.24;99430.73;83880;287;22652;-65
2023/07/28 07:53:01;;;;;;;2.00;0.20;;;;;;;21.44;84.20;99429.17;83903;288;136149;-64
2023/07/28 07:55:04;;;;;;;1.90;0.30;;;;;;;21.47;83.01;99432.15;84071;287;22505;-63
2023/07/28 07:57:07;;;;;;;2.40;0.20;;;;;;;21.41;82.57;99437.04;83931;288;135604;-67
2023/07/28 07:59:09;;;;;;;1.70;0.30;;;;;;;21.34;83.45;99432.59;84140;287;25248;-62
2023/07/28 08:01:11;;;;;;;2.70;0.30;;;;;;;21.26;83.09;99436.33;83890;287;136128;-66
2023/07/28 08:03:13;;;;;;;1.80;0.20;;;;;;;21.26;83.96;99436.16;84059;286;22550;-67
2023/07/28 08:05:15;;;;;;;3.30;0.10;;;;;;;21.20;82.39;99435.34;83887;287;135587;-62
2023/07/28 08:07:17;;;;;;;1.70;0.10;;;;;;;21.18;83.42;99439.56;84019;287;26329;-60
2023/07/28 08:09:19;;;;;;;0.90;0.50;;;;;;;21.17;84.09;99441.47;84007;286;136584;-62
2023/07/28 08:11:21;;;;;;;0.50;0.20;;;;;;;21.20;85.13;99441.36;84164;285;22583;-64
2023/07/28 08:13:24;;;;;;;0.30;0.20;;;;;;;21.24;84.70;99444.80;84013;285;136300;-65
2023/07/28 08:15:26;;;;;;;2.30;0.20;;;;;;;21.29;83.93;99441.95;84051;286;22817;-63
2023/07/28 08:17:28;;;;;;;0.60;0.20;;;;;;;21.35;84.40;99442.13;84003;287;135569;-61
2023/07/28 08:19:30;;;;;;;0.20;0.10;;;;;;;21.44;84.68;99444.25;84150;286;25383;-62
2023/07/28 08:21:36;;;;;;;3.70;0.20;;;;;;;21.49;82.41;99444.66;84000;286;137626;-67
2023/07/28 08:23:38;;;;;;;2.20;0.40;;;;;;;21.53;83.65;99439.97;84187;286;22585;-60
2023/07/28 08:25:40;;;;;;;1.30;0.40;;;;;;;21.57;82.86;99442.76;84010;286;137191;-64
2023/07/28 08:27:44;;;;;;;1.30;0.20;;;;;;;21.61;83.09;99445.23;84128;286;24613;-63
2023/07/28 08:29:46;;;;;;;0.70;0.10;;;;;;;21.63;83.96;99443.48;83933;286;136027;-61
2023/07/28 08:31:48;;;;;;;1.50;0.30;;;;;;;21.68;85.59;99440.71;84052;286;22585;-60
2023/07/28 08:33:50;;;;;;;2.40;0.90;;;;;;;21.74;81.88;99440.61;83885;285;137340;-62
2023/07/28 08:35:52;;;;;;;0.40;0.20;;;;;;;21.77;79.94;99446.07;84150;285;25241;-68
2023/07/28 08:37:54;;;;;;;3.30;0.20;;;;;;;21.78;79.34;99452.67;83979;285;136078;-59
2023/07/28 08:39:56;;;;;;;0.80;0.10;;;;;;;21.74;76.14;99454.88;84161;283;22831;-60
2023/07/28 08:42:01;;;;;;;1.40;0.10;;;;;;;21.66;75.50;99456.85;84097;285;136073;-63
2023/07/28 08:44:03;;;;;;;1.20;0.10;;;;;;;21.55;77.39;99457.37;84046;285;136561;-65
2023/07/28 08:46:05;;;;;;;3.30;0.20;;;;;;;21.46;78.28;99445.81;84230;286;25144;-66
2023/07/28 08:48:08;;;;;;;1.10;0.10;;;;;;;21.54;78.82;99459.38;84064;285;136476;-64
2023/07/28 08:50:11;;;;;;;1.00;0.20;;;;;;;21.59;79.11;99462.33;84161;285;24114;-58
2023/07/28 08:52:16;;;;;;;0.80;0.20;;;;;;;21.64;79.57;99462.06;83916;285;138007;-66
2023/07/28 08:54:18;;;;;;;5.90;0.20;;;;;;;21.70;79.00;99456.33;84038;287;24194;-65
2023/07/28 08:56:20;;;;;;;3.10;1.50;;;;;;;21.76;76.32;99455.14;83857;286;136454;-64
2023/07/28 08:58:24;;;;;;;1.00;0.20;;;;;;;21.79;74.90;99468.45;84185;285;24075;-63
2023/07/28 09:00:27;;;;;;;0.40;0.10;;;;;;;21.73;74.06;99473.61;84104;285;136612;-63
2023/07/28 09:02:29;;;;;;;1.70;0.10;;;;;;;21.68;75.40;99478.02;84057;286;22560;-62
2023/07/28 09:04:32;;;;;;;0.90;0.30;;;;;;;21.63;74.92;99483.34;84043;285;136125;-65
2023/07/28 09:06:33;;;;;;;0.60;0.20;;;;;;;21.67;74.88;99482.70;84011;288;22653;-62
2023/07/28 09:08:37;;;;;;;0.70;0.20;;;;;;;21.68;74.91;99484.48;84095;285;136273;-61
2023/07/28 09:10:42;;;;;;;1.60;0.50;;;;;;;21.69;75.43;99488.98;84027;286;22575;-64
2023/07/28 09:12:51;;;;;;;1.50;0.10;;;;;;;21.67;74.48;99487.48;84021;285;136417;-67
2023/07/28 09:14:56;;;;;;;0.40;0.10;;;;;;;21.68;75.70;99484.58;84163;285;22583;-64
2023/07/28 09:17:16;;;;;;;0.80;0.10;;;;;;;21.72;74.86;99483.80;83969;286;136156;-61
2023/07/28 09:19:21;;;;;;;0.20;0.10;;;;;;;21.78;74.38;99489.84;84092;288;22553;-65
2023/07/28 09:21:23;;;;;;;1.80;0.20;;;;;;;21.80;74.66;99484.66;84048;285;136538;-63
2023/07/28 09:23:30;;;;;;;0.90;0.20;;;;;;;21.79;74.90;99495.58;84098;281;22862;-67
2023/07/28 09:25:34;;;;;;;0.80;0.10;;;;;;;21.82;75.08;99494.73;84050;286;136059;-61
2023/07/28 09:27:38;;;;;;;1.90;0.10;;;;;;;21.89;75.71;99494.09;83990;287;22595;-61
2023/07/28 09:29:41;;;;;;;0.50;0.20;;;;;;;22.01;75.72;99486.34;83922;287;136176;-59
2023/07/28 09:31:44;;;;;;;1.50;0.20;;;;;;;22.09;74.49;99487.58;84007;288;25285;-62
2023/07/28 09:33:46;;;;;;;1.30;0.10;;;;;;;22.11;74.17;99492.44;83840;287;136340;-58
2023/07/28 09:35:50;;;;;;;3.60;0.20;;;;;;;22.08;72.33;99487.36;84120;287;25240;-58
2023/07/28 09:37:54;;;;;;;0.50;0.20;;;;;;;22.01;72.15;99492.58;83943;286;136307;-65
2023/07/28 09:39:58;;;;;;;0.80;0.20;;;;;;;22.00;73.58;99485.70;84013;286;22575;-60
2023/07/28 09:42:01;;;;;;;1.10;0.10;;;;;;;22.04;72.84;99486.59;84051;287;136966;-60
2023/07/28 09:44:05;;;;;;;0.80;0.10;;;;;;;22.04;72.67;99484.19;84056;287;137942;-64
2023/07/28 09:46:09;;;;;;;0.80;0.20;;;;;;;22.04;73.62;99488.96;84159;287;25408;-60
2023/07/28 09:48:15;;;;;;;0.60;0.10;;;;;;;22.11;73.70;99492.11;83891;287;136468;-59
2023/07/28 09:50:22;;;;;;;0.20;0.20;;;;;;;22.18;74.40;99494.27;84121;287;22661;-61
2023/07/28 09:52:28;;;;;;;1.10;0.20;;;;;;;22.24;73.08;99492.48;83938;286;136415;-66
2023/07/28 09:54:38;;;;;;;0.90;0.10;;;;;;;22.29;72.56;99494.29;84026;286;23385;-64
2023/07/28 09:56:41;;;;;;;1.50;0.10;;;;;;;22.28;71.54;99496.31;83953;286;136577;-64
2023/07/28 09:58:52;;;;;;;0.30;0.10;;;;;;;22.23;72.68;99491.45;84257;285;25268;-62
2023/07/28 10:00:54;;;;;;;0.30;0.10;;;;;;;22.22;72.24;99493.64;84144;285;136118;-64
2023/07/28 10:02:58;;;;;;;0.30;0.20;;;;;;;22.16;70.95;99499.71;84164;286;24260;-66
2023/07/28 10:05:02;;;;;;;0.50;0.30;;;;;;;22.13;70.52;99508.64;83872;286;136241;-62
2023/07/28 10:07:06;;;;;;;0.40;0.10;;;;;;;22.06;69.05;99501.75;83974;275;22551;-60
2023/07/28 10:09:07;;;;;;;0.20;0.20;;;;;;;22.04;67.61;99495.64;83869;286;136220;-63
2023/07/28 10:11:12;;;;;;;1.90;0.10;;;;;;;22.04;67.92;99492.66;84075;286;25380;-63
2023/07/28 10:13:22;;;;;;;1.90;0.20;;;;;;;22.05;66.22;99494.60;84033;287;136334;-65
2023/07/28 10:15:30;;;;;;;1.30;0.10;;;;;;;22.08;66.06;99491.48;83898;286;22567;-63
2023/07/28 10:17:34;;;;;;;0.40;0.20;;;;;;;22.11;66.26;99488.36;83937;287;136286;-63
2023/07/28 10:19:36;;;;;;;1.10;0.10;;;;;;;22.11;61.45;99488.04;84125;286;24105;-61
2023/07/28 10:21:42;;;;;;;0.20;0.20;;;;;;;22.12;61.68;99489.87;84030;286;136870;-65
2023/07/28 10:23:44;;;;;;;0.30;0.10;;;;;;;22.15;61.31;99486.26;84148;286;22695;-64
2023/07/28 10:25:47;;;;;;;0.10;0.10;;;;;;;22.20;60.39;99489.04;83965;287;137034;-67
2023/07/28 10:27:51;;;;;;;6.30;0.10;;;;;;;22.22;61.14;99481.42;84277;286;25142;-64
2023/07/28 10:29:58;;;;;;;1.10;0.10;;;;;;;22.21;59.47;99477.91;84046;285;136225;-65
2023/07/28 10:32:00;;;;;;;0.20;0.10;;;;;;;22.21;59.21;99476.36;84246;281;23801;-67
2023/07/28 10:34:02;;;;;;;0.60;0.10;;;;;;;22.22;58.64;99478.38;83997;288;135938;-64
2023/07/28 10:36:14;;;;;;;0.20;0.10;;;;;;;22.26;59.52;99477.06;84055;287;136968;-62
2023/07/28 10:38:34;;;;;;;0.50;0.20;;;;;;;22.26;58.21;99468.70;84156;285;23963;-62
2023/07/28 10:40:38;;;;;;;0.70;0.10;;;;;;;22.26;56.34;99471.80;84033;285;136670;-66
2023/07/28 10:42:40;;;;;;;0.60;0.20;;;;;;;22.25;57.00;99471.90;84065;286;22677;-64
2023/07/28 10:44:42;;;;;;;2.30;0.10;;;;;;;22.29;57.07;99474.86;83901;285;136310;-64
2023/07/28 10:46:44;;;;;;;0.40;0.30;;;;;;;22.35;56.75;99468.79;84124;285;22590;-64
2023/07/28 10:48:49;;;;;;;1.00;0.10;;;;;;;22.38;57.60;99465.32;83940;255;136181;-65
2023/07/28 10:50:51;;;;;;;0.50;0.20;;;;;;;22.37;56.86;99457.25;84061;287;24143;-59
2023/07/28 10:52:53;;;;;;;2.20;0.10;;;;;;;22.31;54.98;99441.29;84103;285;136250;-62
2023/07/28 10:54:55;;;;;;;0.90;0.20;;;;;;;22.49;54.88;99464.77;84115;285;22550;-66
2023/07/28 10:57:01;;;;;;;1.50;0.30;;;;;;;22.50;54.31;99468.30;84080;285;136127;-63
2023/07/28 10:59:06;;;;;;;1.70;0.20;;;;;;;22.47;52.46;99471.30;84038;286;22566;-63
2023/07/28 11:01:08;;;;;;;0.90;0.10;;;;;;;22.46;52.64;99470.46;83941;274;136029;-64
2023/07/28 11:03:12;;;;;;;0.90;0.10;;;;;;;22.44;52.69;99472.48;84013;285;27043;-62
2023/07/28 11:05:21;;;;;;;0.50;0.10;;;;;;;22.46;53.66;99474.64;84222;285;136146;-65
2023/07/28 11:07:24;;;;;;;1.30;0.10;;;;;;;22.45;54.10;99470.13;84251;286;22564;-59
2023/07/28 11:09:27;;;;;;;2.10;0.10;;;;;;;22.49;54.14;99469.94;83865;287;137197;-65
2023/07/28 11:11:30;;;;;;;0.90;0.10;;;;;;;22.53;53.45;99468.15;84082;286;23752;-63
2023/07/28 11:13:32;;;;;;;0.70;0.10;;;;;;;22.54;51.70;99468.41;83968;286;137493;-65
2023/07/28 11:15:42;;;;;;;1.90;0.10;;;;;;;22.54;51.09;99472.80;83995;288;22551;-65
2023/07/28 11:17:49;;;;;;;4.80;0.20;;;;;;;22.50;50.98;99481.96;84036;286;137515;-63
2023/07/28 11:19:51;;;;;;;0.20;0.10;;;;;;;22.49;51.10;99470.84;84134;287;25141;-64
2023/07/28 11:21:55;;;;;;;0.20;0.10;;;;;;;22.50;51.25;99462.41;83897;287;136204;-64
2023/07/28 11:23:57;;;;;;;1.20;0.10;;;;;;;22.53;51.45;99462.94;84302;286;24102;-60
2023/07/28 11:25:59;;;;;;;0.20;0.10;;;;;;;22.54;51.67;99461.35;84023;286;135920;-69
2023/07/28 11:28:05;;;;;;;1.00;0.10;;;;;;;22.54;50.58;99459.72;84120;287;22782;-64
2023/07/28 11:30:11;;;;;;;0.50;0.10;;;;;;;22.57;51.05;99460.08;83998;275;24142;-62
2023/07/28 11:32:15;;;;;;;0.90;0.10;;;;;;;22.54;49.75;99463.52;83914;285;136832;-66
2023/07/28 11:34:19;;;;;;;1.50;0.30;;;;;;;22.54;49.72;99462.92;84146;285;22568;-64
2023/07/28 11:36:28;;;;;;;3.50;0.10;;;;;;;22.55;50.80;99463.89;84011;285;137579;-64
2023/07/28 11:38:31;;;;;;;0.60;0.10;;;;;;;22.59;51.08;99466.73;84060;286;22816;-64
2023/07/28 11:40:36;;;;;;;4.10;0.40;;;;;;;22.61;51.72;99463.87;84072;285;136220;-67
2023/07/28 11:42:44;;;;;;;0.40;0.10;;;;;;;22.65;51.20;99467.63;84209;285;25630;-65
2023/07/28 11:44:46;;;;;;;0.50;0.10;;;;;;;22.71;50.48;99468.59;84095;285;136426;-59
2023/07/28 11:46:53;;;;;;;0.90;0.20;;;;;;;22.71;50.29;99472.39;84000;286;25304;-63
2023/07/28 11:49:06;;;;;;;0.60;0.10;;;;;;;22.73;50.88;99479.83;84014;285;137359;-68
2023/07/28 11:51:13;;;;;;;2.90;0.60;;;;;;;22.78;49.83;99484.55;84216;285;22550;-63
2023/07/28 11:53:15;;;;;;;1.70;0.50;;;;;;;22.81;49.73;99480.16;84044;285;136410;-63
2023/07/28 11:55:19;;;;;;;0.30;0.10;;;;;;;22.83;50.39;99486.82;83946;286;24251;-63
2023/07/28 11:57:21;;;;;;;0.60;0.20;;;;;;;22.82;50.80;99485.91;83794;287;136438;-65
2023/07/28 11:59:24;;;;;;;1.50;0.20;;;;;;;22.81;51.04;99487.98;83976;287;25231;-62
2023/07/28 12:01:25;;;;;;;0.80;0.10;;;;;;;22.84;51.29;99491.20;83928;286;136156;-65
2023/07/28 12:03:30;;;;;;;0.20;0.10;;;;;;;22.91;50.48;99494.65;84088;287;24264;-61
2023/07/28 12:05:34;;;;;;;3.00;0.10;;;;;;;22.94;49.44;99492.55;84015;286;137813;-65
2023/07/28 12:07:36;;;;;;;1.30;0.10;;;;;;;22.94;50.45;99496.39;84156;286;22553;-63
2023/07/28 12:10:31;;;;;;;0.50;0.20;;;;;;;22.94;51.07;99491.19;84115;285;136325;-62
2023/07/28 12:12:13;;;;;;;0.20;0.10;;;;;;;22.92;51.50;99491.98;84018;275;137876;-64
2023/07/28 12:14:36;;;;;;;1.70;0.10;;;;;;;22.92;51.38;99491.70;83962;287;25227;-60
2023/07/28 12:16:47;;;;;;;1.50;0.10;;;;;;;22.97;51.37;99483.48;84105;285;137726;-63
2023/07/28 12:18:58;;;;;;;1.50;0.10;;;;;;;23.00;51.11;99485.57;84250;285;22556;-63
2023/07/28 12:21:00;;;;;;;2.40;0.20;;;;;;;23.05;51.14;99485.75;84138;285;136322;-64
2023/07/28 12:23:03;;;;;;;4.90;0.20;;;;;;;23.06;50.30;99489.96;83994;287;22559;-65
2023/07/28 12:25:08;;;;;;;1.40;0.20;;;;;;;23.05;50.84;99483.80;84046;285;136409;-63
2023/07/28 12:27:12;;;;;;;0.30;0.10;;;;;;;23.04;50.63;99483.26;84047;285;25200;-64
2023/07/28 12:29:15;;;;;;;0.90;0.10;;;;;;;23.01;50.47;99485.98;84055;285;136093;-66
2023/07/28 12:31:31;;;;;;;1.30;0.10;;;;;;;23.02;51.04;99487.77;84062;286;22558;-65
2023/07/28 12:33:45;;;;;;;0.90;0.10;;;;;;;23.04;51.86;99483.36;84126;285;136189;-64
2023/07/28 12:35:51;;;;;;;2.10;0.20;;;;;;;23.08;51.30;99482.71;84147;285;22660;-64
2023/07/28 12:37:53;;;;;;;1.40;0.20;;;;;;;23.10;49.81;99484.38;83943;286;136176;-64
2023/07/28 12:39:58;;;;;;;;;;;;;;;23.09;49.81;99477.92;84187;287;22557;-63
2023/07/28 12:42:20;;;;;;;0.60;0.10;;;;;;;23.04;49.74;99475.05;84014;287;23508;-63
2023/07/28 12:44:42;;;;;;;2.20;0.30;;;;;;;23.01;49.82;99478.16;84053;285;136260;-63
2023/07/28 12:46:47;;;;;;;0.30;0.10;;;;;;;22.99;48.92;99479.55;84180;285;22568;-63
2023/07/28 12:48:50;;;;;;;0.50;0.10;;;;;;;22.98;49.48;99484.02;84102;285;136084;-63
2023/07/28 12:50:52;;;;;;;0.30;0.10;;;;;;;22.95;49.18;99477.20;83974;287;25321;-66
2023/07/28 12:52:56;;;;;;;;;;;;;;;22.92;49.71;99485.34;84075;286;136185;-65
2023/07/28 12:55:18;;;;;;;0.10;0.10;;;;;;;22.89;50.17;99487.13;84091;286;22605;-66
2023/07/28 12:57:21;;;;;;;0.10;0.10;;;;;;;22.87;49.99;99489.33;83867;286;136201;-61
2023/07/28 12:59:23;;;;;;;0.10;0.10;;;;;;;22.89;49.23;99490.54;83991;287;22557;-64
2023/07/28 13:01:26;;;;;;;1.40;0.10;;;;;;;22.94;49.85;99490.86;84002;285;136575;-65
2023/07/28 13:03:28;;;;;;;0.80;0.10;;;;;;;22.99;51.01;99496.17;84097;285;22655;-65
2023/07/28 13:05:30;;;;;;;0.40;0.10;;;;;;;23.05;49.80;99492.27;83942;285;136486;-62
2023/07/28 13:07:32;;;;;;;0.40;0.10;;;;;;;23.08;49.86;99495.65;83863;286;25226;-66
2023/07/28 13:09:37;;;;;;;4.30;0.10;;;;;;;23.08;50.38;99502.66;83950;276;137039;-64
2023/07/28 13:11:41;;;;;;;0.60;0.10;;;;;;;23.09;50.06;99505.65;84054;285;22552;-68
2023/07/28 13:13:46;;;;;;;1.20;0.10;;;;;;;23.08;50.88;99506.58;83992;287;136122;-60
2023/07/28 13:15:48;;;;;;;4.90;0.10;;;;;;;23.11;51.42;99506.27;84035;287;22553;-68
2023/07/28 13:17:50;;;;;;;1.70;0.10;;;;;;;23.13;51.85;99512.38;83950;286;136419;-63
2023/07/28 13:19:52;;;;;;;0.40;0.10;;;;;;;23.18;51.08;99511.89;84056;285;25164;-64
2023/07/28 13:21:53;;;;;;;0.50;0.10;;;;;;;23.23;50.65;99513.58;83505;287;556737;-65
2023/07/28 13:23:55;;;;;;;0.40;0.10;;;;;;;23.28;50.96;99515.02;83991;287;22583;-65
2023/07/28 13:25:58;;;;;;;1.70;0.10;;;;;;;23.32;50.05;99512.61;83926;287;135990;-66
2023/07/28 13:27:59;;;;;;;3.60;0.10;;;;;;;23.36;50.45;99507.58;83942;287;23752;-63
2023/07/28 13:30:04;;;;;;;1.30;0.10;;;;;;;23.42;49.93;99512.60;84056;285;136336;-63
2023/07/28 13:32:19;;;;;;;0.70;0.10;;;;;;;23.46;48.99;99517.05;84079;285;136808;-66
2023/07/28 13:34:20;;;;;;;1.50;0.00;;;;;;;23.43;47.52;99520.68;84224;283;24662;-62
2023/07/28 13:36:23;;;;;;;0.80;0.00;;;;;;;23.38;47.87;99516.56;84036;283;136459;-64
2023/07/28 13:38:25;;;;;;;0.50;0.10;;;;;;;23.35;48.65;99516.21;84492;284;22750;-62
2023/07/28 13:40:26;;;;;;;17.80;0.20;;;;;;;23.33;48.94;99519.84;83939;285;137756;-61
2023/07/28 13:42:30;;;;;;;1.50;0.10;;;;;;;23.33;49.71;99521.40;84141;284;22555;-65
2023/07/28 13:44:32;;;;;;;0.10;0.10;;;;;;;23.33;50.08;99520.66;84063;284;136482;-67
2023/07/28 13:46:35;;;;;;;0.10;0.10;;;;;;;23.34;50.39;99525.54;84240;284;22593;-62
2023/07/28 13:48:39;;;;;;;0.60;0.10;;;;;;;23.36;50.38;99524.91;84163;283;136427;-61
2023/07/28 13:50:43;;;;;;;0.60;0.10;;;;;;;23.40;51.26;99521.17;84239;283;22551;-59
2023/07/28 13:52:56;;;;;;;2.10;0.20;;;;;;;23.44;51.13;99522.40;84096;283;138666;-63
2023/07/28 13:54:58;;;;;;;0.30;0.10;;;;;;;23.48;50.59;99521.64;84184;284;22572;-67
2023/07/28 13:57:04;;;;;;;;;;;;;;;23.53;49.68;99519.50;84047;283;137387;-64
2023/07/28 13:59:06;;;;;;;0.60;0.00;;;;;;;23.53;49.99;99515.15;84124;283;22546;-63
2023/07/28 14:01:08;;;;;;;0.30;0.10;;;;;;;23.49;49.81;99518.95;84158;284;136255;-60
2023/07/28 14:03:09;;;;;;;0.10;0.10;;;;;;;23.46;49.76;99519.77;84168;284;24135;-61
2023/07/28 14:05:11;;;;;;;1.30;0.10;;;;;;;23.45;50.06;99521.54;84171;283;137559;-64
2023/07/28 14:07:13;;;;;;;0.30;0.10;;;;;;;23.45;49.44;99520.70;84244;283;25272;-65
2023/07/28 14:09:16;;;;;;;0.50;0.00;;;;;;;23.41;47.42;99517.92;84077;282;136793;-61
2023/07/28 14:11:18;;;;;;;4.70;0.20;;;;;;;23.35;47.30;99523.77;84129;284;22585;-62
2023/07/28 14:13:20;;;;;;;0.50;0.10;;;;;;;23.30;48.08;99525.41;84021;283;136390;-65
2023/07/28 14:15:22;;;;;;;0.30;0.10;;;;;;;23.28;49.83;99526.59;84136;283;25243;-63
2023/07/28 14:17:24;;;;;;;1.30;0.20;;;;;;;23.27;49.34;99527.92;84016;283;138051;-65
2023/07/28 14:19:26;;;;;;;1.60;0.50;;;;;;;23.25;48.55;99526.96;84206;284;24401;-60
2023/07/28 14:21:28;;;;;;;1.80;0.40;;;;;;;23.24;48.00;99525.50;84082;284;136415;-60
2023/07/28 14:23:29;;;;;;;0.20;0.10;;;;;;;23.26;47.86;99519.45;84126;283;23743;-61
2023/07/28 14:25:31;;;;;;;0.20;0.20;;;;;;;23.29;47.58;99519.09;84064;283;136484;-59
2023/07/28 14:27:33;;;;;;;3.70;3.40;;;;;;;23.30;48.41;99520.04;84328;282;25302;-64
2023/07/28 14:29:35;;;;;;;0.60;0.50;;;;;;;23.35;48.66;99517.37;84054;283;136450;-62
2023/07/28 14:31:37;;;;;;;1.00;1.00;;;;;;;23.40;48.01;99510.17;84053;284;25254;-60
2023/07/28 14:33:40;;;;;;;0.50;0.20;;;;;;;23.46;48.08;99505.95;84090;284;136391;-63
2023/07/28 14:35:45;;;;;;;0.80;0.10;;;;;;;23.53;47.92;99501.46;84207;284;22587;-62